Time;durP1;ratioP1;P1;durP2;ratioP2;P2;SDS_P1;SDS_P2;PMS_P1;PMS_P2;Temp;Humidity;BMP_temperature;BMP_pressure;BME280_temperature;BME280_humidity;BME280_pressure;Samples;Min_cycle;Max_cycle;Signal;HPM_P1;HPM_P2
2021/10/21 00:00:49;;;;;;;7.10;4.70;;;;;;;14.59;100.00;98991.13;5031578;28;20057;-77
2021/10/21 00:03:14;;;;;;;5.22;4.22;;;;;;;14.61;100.00;98964.28;5033126;28;20119;-77
2021/10/21 00:05:40;;;;;;;4.60;3.47;;;;;;;14.60;100.00;98960.00;5033604;28;20036;-77
2021/10/21 00:08:05;;;;;;;6.65;3.88;;;;;;;14.63;100.00;98960.41;5032044;28;20037;-78
2021/10/21 00:10:30;;;;;;;7.30;3.30;;;;;;;14.65;100.00;98941.56;5032353;28;20502;-77
2021/10/21 00:12:56;;;;;;;4.50;3.50;;;;;;;14.59;100.00;98948.56;5031168;28;20038;-77
2021/10/21 00:15:21;;;;;;;5.55;3.80;;;;;;;14.61;100.00;98949.16;5028863;28;20055;-78
2021/10/21 00:17:46;;;;;;;3.85;3.00;;;;;;;14.54;100.00;98934.25;5033652;28;20108;-77
2021/10/21 00:20:12;;;;;;;5.80;3.75;;;;;;;14.55;100.00;98922.59;5031870;28;20042;-77
2021/10/21 00:22:38;;;;;;;6.05;3.20;;;;;;;14.58;100.00;98919.50;5033715;28;20121;-77
2021/10/21 00:25:05;;;;;;;5.22;2.90;;;;;;;14.59;100.00;98897.22;5034835;28;20095;-77
2021/10/21 00:27:31;;;;;;;4.15;3.22;;;;;;;14.59;100.00;98899.88;5050839;28;20026;-78
2021/10/21 00:29:57;;;;;;;3.90;2.85;;;;;;;14.56;100.00;98892.31;5036451;28;20029;-78
2021/10/21 00:32:22;;;;;;;3.78;2.80;;;;;;;14.57;100.00;98881.47;5036422;28;20038;-77
2021/10/21 00:34:47;;;;;;;4.40;2.90;;;;;;;14.55;100.00;98880.88;5036783;28;20092;-77
2021/10/21 00:37:13;;;;;;;6.03;2.97;;;;;;;14.56;100.00;98869.22;5036645;28;20030;-77
2021/10/21 00:39:38;;;;;;;3.00;2.53;;;;;;;14.58;100.00;98890.25;5036841;28;20033;-78
2021/10/21 00:42:03;;;;;;;3.65;2.85;;;;;;;14.52;100.00;98872.50;5036378;28;20045;-77
2021/10/21 00:44:29;;;;;;;5.50;2.65;;;;;;;14.59;100.00;98863.44;5036796;28;20049;-77
2021/10/21 00:46:54;;;;;;;4.10;2.70;;;;;;;14.58;100.00;98861.00;5035806;28;20037;-79
2021/10/21 00:49:20;;;;;;;4.22;2.50;;;;;;;14.61;100.00;98887.97;5036092;28;20037;-78
2021/10/21 00:51:45;;;;;;;4.95;2.75;;;;;;;14.62;100.00;98886.13;5034763;28;20033;-77
2021/10/21 00:54:11;;;;;;;4.95;2.60;;;;;;;14.63;100.00;98851.34;5035429;28;20120;-78
2021/10/21 00:56:37;;;;;;;3.25;2.65;;;;;;;14.70;99.54;98853.09;5035948;28;20442;-77
2021/10/21 00:59:04;;;;;;;4.22;2.60;;;;;;;14.71;99.87;98838.78;5035365;28;20080;-77
2021/10/21 01:01:33;;;;;;;3.78;2.83;;;;;;;14.70;100.00;98831.81;5034956;28;20030;-77
2021/10/21 01:03:58;;;;;;;3.88;2.80;;;;;;;14.69;100.00;98824.88;5034731;28;20065;-77
2021/10/21 01:06:24;;;;;;;4.70;3.03;;;;;;;14.69;100.00;98783.13;5032899;28;20036;-78
2021/10/21 01:08:52;;;;;;;4.25;3.00;;;;;;;14.70;100.00;98790.06;5035648;28;20032;-78
2021/10/21 01:11:18;;;;;;;4.93;2.88;;;;;;;14.78;99.56;98759.72;5033447;28;20029;-77
2021/10/21 01:13:43;;;;;;;3.72;3.03;;;;;;;14.79;99.82;98738.19;5034852;28;20037;-77
2021/10/21 01:16:13;;;;;;;5.78;3.10;;;;;;;14.84;99.51;98709.06;5030435;28;20132;-78
2021/10/21 01:18:41;;;;;;;4.40;3.17;;;;;;;14.91;99.24;98701.00;5035145;28;20079;-79
2021/10/21 01:21:08;;;;;;;5.50;3.13;;;;;;;14.82;100.00;98700.47;5037951;28;20205;-80
2021/10/21 01:23:35;;;;;;;4.07;2.83;;;;;;;14.80;100.00;98699.06;5037209;28;20029;-80
2021/10/21 01:26:00;;;;;;;4.60;2.88;;;;;;;14.83;100.00;98715.41;5037015;28;20117;-81
2021/10/21 01:28:26;;;;;;;4.55;2.95;;;;;;;14.92;99.41;98704.44;5027697;28;20111;-80
2021/10/21 01:30:51;;;;;;;5.47;2.85;;;;;;;15.00;98.39;98718.28;5035971;28;20033;-78
2021/10/21 01:33:17;;;;;;;3.17;2.60;;;;;;;15.09;98.42;98697.50;5030858;28;20073;-78
2021/10/21 01:35:43;;;;;;;3.03;2.38;;;;;;;15.12;97.42;98712.19;5035732;28;20107;-76
2021/10/21 01:38:09;;;;;;;3.00;2.25;;;;;;;15.14;98.14;98702.94;5033677;28;20068;-78
2021/10/21 01:40:34;;;;;;;3.22;2.25;;;;;;;15.22;96.39;98696.47;5036478;28;20053;-77
2021/10/21 01:43:00;;;;;;;4.05;2.20;;;;;;;15.28;96.72;98698.25;5034488;28;20037;-77
2021/10/21 01:45:29;;;;;;;3.13;2.28;;;;;;;15.33;96.12;98682.41;5034532;28;20061;-78
2021/10/21 01:47:56;;;;;;;2.63;2.10;;;;;;;15.34;95.75;98670.69;5032186;28;20038;-78
2021/10/21 01:50:23;;;;;;;2.60;2.05;;;;;;;15.36;95.74;98657.97;5034388;28;20029;-77
2021/10/21 01:52:48;;;;;;;2.72;2.10;;;;;;;15.35;96.92;98664.34;5033840;28;20033;-76
2021/10/21 01:55:15;;;;;;;3.75;2.42;;;;;;;15.31;98.78;98673.81;5036635;28;20060;-78
2021/10/21 01:57:42;;;;;;;3.47;2.25;;;;;;;15.37;96.55;98667.56;5037533;28;20025;-78
2021/10/21 02:00:09;;;;;;;4.25;2.30;;;;;;;15.43;95.92;98658.66;5035689;28;20390;-77
2021/10/21 02:02:35;;;;;;;3.97;2.20;;;;;;;15.45;95.89;98680.56;5034666;28;20040;-78
2021/10/21 02:05:00;;;;;;;3.95;2.13;;;;;;;15.50;94.53;98661.22;5037609;28;20045;-77
2021/10/21 02:07:26;;;;;;;3.90;2.20;;;;;;;15.53;94.51;98671.41;5034269;28;20284;-77
2021/10/21 02:09:51;;;;;;;4.43;2.38;;;;;;;15.43;96.79;98647.22;5035906;28;20037;-79
2021/10/21 02:12:17;;;;;;;3.53;2.40;;;;;;;15.43;95.48;98639.22;5037652;28;20032;-79
2021/10/21 02:14:42;;;;;;;2.70;2.30;;;;;;;15.39;95.75;98644.19;5033105;28;20422;-78
2021/10/21 02:17:08;;;;;;;3.72;2.80;;;;;;;15.34;96.42;98646.72;5037150;28;20037;-78
2021/10/21 02:19:34;;;;;;;3.53;2.50;;;;;;;15.21;97.74;98636.28;5038111;28;20041;-80
2021/10/21 02:22:00;;;;;;;3.80;2.60;;;;;;;15.20;97.13;98634.66;5037704;28;20040;-78
2021/10/21 02:24:25;;;;;;;3.45;2.30;;;;;;;15.07;99.33;98646.31;5037547;28;20034;-78
2021/10/21 02:26:50;;;;;;;3.55;2.40;;;;;;;15.03;98.88;98653.94;5036084;28;20025;-78
2021/10/21 02:29:16;;;;;;;3.55;2.63;;;;;;;15.01;100.00;98653.34;5036756;28;20116;-79
2021/10/21 02:31:41;;;;;;;3.50;2.53;;;;;;;14.94;100.00;98678.44;5038928;28;20040;-79
2021/10/21 02:34:06;;;;;;;5.03;3.10;;;;;;;14.99;99.23;98674.06;5031511;28;20033;-79
2021/10/21 02:36:31;;;;;;;3.55;2.90;;;;;;;14.88;100.00;98690.81;5037580;28;20029;-79
2021/10/21 02:38:57;;;;;;;3.60;2.80;;;;;;;14.80;100.00;98685.78;5037848;28;20141;-78
2021/10/21 02:41:23;;;;;;;5.50;3.60;;;;;;;14.74;100.00;98697.31;5037471;28;20101;-79
2021/10/21 02:43:48;;;;;;;3.67;2.70;;;;;;;14.70;100.00;98688.16;5038182;28;20045;-78
2021/10/21 02:46:14;;;;;;;3.63;3.00;;;;;;;14.67;100.00;98704.56;5038325;28;20061;-79
2021/10/21 02:48:39;;;;;;;4.78;2.80;;;;;;;14.65;100.00;98720.75;5034996;28;20040;-79
2021/10/21 02:51:05;;;;;;;4.75;3.28;;;;;;;14.67;100.00;98723.19;5038431;28;20030;-79
2021/10/21 02:53:30;;;;;;;6.50;3.63;;;;;;;14.67;100.00;98715.22;5039462;28;20075;-79
2021/10/21 02:55:55;;;;;;;7.60;3.28;;;;;;;14.68;100.00;98719.50;5040591;28;20095;-79
2021/10/21 02:58:21;;;;;;;5.13;3.78;;;;;;;14.71;100.00;98709.22;5039728;28;20557;-79
2021/10/21 03:00:46;;;;;;;5.85;3.70;;;;;;;14.71;100.00;98721.72;5040577;28;20033;-78
2021/10/21 03:03:12;;;;;;;4.30;3.50;;;;;;;14.64;100.00;98727.13;5041168;28;20037;-77
2021/10/21 03:05:37;;;;;;;4.95;3.80;;;;;;;14.65;100.00;98729.53;5040528;28;20061;-78
2021/10/21 03:08:02;;;;;;;4.43;3.10;;;;;;;14.64;100.00;98729.78;5039822;28;20034;-78
2021/10/21 03:10:28;;;;;;;4.85;3.45;;;;;;;14.57;100.00;98724.53;5040464;28;20045;-78
2021/10/21 03:12:53;;;;;;;4.25;2.80;;;;;;;14.49;100.00;98719.50;5037180;28;20053;-79
2021/10/21 03:15:18;;;;;;;3.03;2.08;;;;;;;14.33;100.00;98730.69;5034992;28;20120;-79
2021/10/21 03:17:44;;;;;;;3.08;2.15;;;;;;;14.24;100.00;98744.25;5034568;28;20091;-78
2021/10/21 03:20:11;;;;;;;2.88;1.67;;;;;;;14.05;100.00;98734.63;5032895;28;20433;-79
2021/10/21 03:22:37;;;;;;;3.08;1.50;;;;;;;13.91;100.00;98749.06;5033830;28;20390;-78
2021/10/21 03:25:02;;;;;;;3.35;1.65;;;;;;;13.78;100.00;98744.69;5032101;28;20037;-79
2021/10/21 03:27:27;;;;;;;2.72;1.60;;;;;;;13.70;100.00;98756.34;5033197;28;20029;-78
2021/10/21 03:29:53;;;;;;;2.83;1.50;;;;;;;13.64;100.00;98751.94;5034102;28;20072;-78
2021/10/21 03:32:18;;;;;;;2.60;1.63;;;;;;;13.66;100.00;98751.69;5033421;28;20124;-79
2021/10/21 03:34:43;;;;;;;3.40;1.20;;;;;;;13.72;100.00;98746.34;5028529;28;20025;-78
2021/10/21 03:37:09;;;;;;;2.10;1.10;;;;;;;13.75;99.37;98753.91;5033774;28;20033;-78
2021/10/21 03:39:35;;;;;;;2.70;1.30;;;;;;;13.77;95.72;98765.09;5032159;28;20029;-77
2021/10/21 03:42:01;;;;;;;3.28;0.95;;;;;;;13.80;93.58;98775.31;5032840;28;20375;-77
2021/10/21 03:44:26;;;;;;;2.58;0.80;;;;;;;13.63;94.57;98787.47;5032334;28;20107;-78
2021/10/21 03:46:51;;;;;;;1.75;0.70;;;;;;;13.56;89.72;98819.41;5033041;28;20576;-77
2021/10/21 03:49:17;;;;;;;8.75;0.95;;;;;;;13.50;89.36;98827.41;5028630;28;20037;-79
2021/10/21 03:51:42;;;;;;;4.53;0.85;;;;;;;13.51;82.50;98834.31;5033863;28;20029;-78
2021/10/21 03:54:12;;;;;;;6.18;0.98;;;;;;;13.36;85.19;98855.84;5032737;28;20491;-78
2021/10/21 03:56:38;;;;;;;7.90;1.10;;;;;;;13.23;80.64;98864.66;5033344;28;20086;-78
2021/10/21 03:59:03;;;;;;;8.13;1.10;;;;;;;13.14;80.48;98889.78;5032390;28;20120;-78
2021/10/21 04:01:29;;;;;;;12.10;1.17;;;;;;;12.99;80.89;98875.94;5033128;28;20119;-79
2021/10/21 04:03:54;;;;;;;4.13;1.00;;;;;;;12.94;81.56;98877.38;5033468;28;20284;-79
2021/10/21 04:06:19;;;;;;;4.93;0.90;;;;;;;12.75;79.94;98860.50;5033263;28;20038;-79
2021/10/21 04:08:45;;;;;;;4.82;1.00;;;;;;;12.79;79.45;98881.28;5034641;28;20037;-79
2021/10/21 04:11:10;;;;;;;6.53;1.27;;;;;;;12.81;77.45;98868.63;5032978;28;20037;-79
2021/10/21 04:13:35;;;;;;;9.98;2.35;;;;;;;12.75;78.62;98855.19;5034244;28;20036;-77
2021/10/21 04:16:01;;;;;;;6.97;1.08;;;;;;;12.64;81.59;98886.81;5031214;28;20601;-78
2021/10/21 04:18:26;;;;;;;3.35;0.90;;;;;;;12.64;77.13;98887.63;5025828;28;20468;-79
2021/10/21 04:20:51;;;;;;;3.25;1.10;;;;;;;12.64;79.90;98881.50;5033829;28;20034;-79
2021/10/21 04:23:16;;;;;;;4.03;0.95;;;;;;;12.73;76.93;98874.97;5031850;28;20037;-79
2021/10/21 04:25:42;;;;;;;3.50;0.98;;;;;;;12.70;77.59;98876.22;5032756;28;20094;-79
2021/10/21 04:28:07;;;;;;;5.93;0.98;;;;;;;12.76;77.19;98879.88;5031455;28;20391;-78
2021/10/21 04:30:32;;;;;;;4.55;0.93;;;;;;;12.86;74.31;98876.78;5033213;28;20026;-76
2021/10/21 04:32:58;;;;;;;5.57;1.15;;;;;;;12.81;77.03;98890.66;5027788;28;20026;-78
2021/10/21 04:35:23;;;;;;;5.85;1.10;;;;;;;12.73;77.06;98885.59;5030516;28;20433;-77
2021/10/21 04:37:48;;;;;;;5.05;1.20;;;;;;;12.87;75.13;98881.91;5031419;28;20069;-77
2021/10/21 04:40:14;;;;;;;4.88;1.17;;;;;;;12.93;71.91;98896.16;5029772;28;20401;-78
2021/10/21 04:42:39;;;;;;;6.78;1.20;;;;;;;12.93;72.55;98888.19;5032262;28;20242;-78
2021/10/21 04:45:05;;;;;;;7.30;1.40;;;;;;;13.03;71.93;98891.22;5031241;28;20042;-78
2021/10/21 04:47:31;;;;;;;7.43;1.40;;;;;;;13.12;72.65;98886.53;5030195;28;20026;-78
2021/10/21 04:49:57;;;;;;;6.82;1.27;;;;;;;13.05;71.14;98888.38;5027105;28;20053;-78
2021/10/21 04:52:22;;;;;;;7.57;1.20;;;;;;;13.08;70.02;98909.19;5031175;28;20061;-77
2021/10/21 04:54:47;;;;;;;8.52;1.55;;;;;;;13.02;71.71;98894.91;5031398;28;20041;-78
2021/10/21 04:57:13;;;;;;;9.10;1.70;;;;;;;13.05;70.05;98883.06;5030496;28;20032;-79
2021/10/21 04:59:38;;;;;;;6.28;1.42;;;;;;;13.05;69.54;98896.34;5031844;28;20035;-77
2021/10/21 05:02:03;;;;;;;6.15;1.60;;;;;;;13.13;68.23;98896.09;5031367;28;20037;-78
2021/10/21 05:04:29;;;;;;;12.02;2.00;;;;;;;13.12;69.36;98913.06;5029413;28;20076;-77
2021/10/21 05:06:54;;;;;;;10.35;1.85;;;;;;;13.10;69.03;98899.19;5030864;28;20030;-77
2021/10/21 05:09:19;;;;;;;10.80;2.00;;;;;;;13.05;69.92;98891.03;5029849;28;20030;-77
2021/10/21 05:11:44;;;;;;;13.75;1.98;;;;;;;13.23;66.61;98883.22;5034317;28;20517;-78
2021/10/21 05:14:18;;;;;;;10.35;1.55;;;;;;;13.22;67.30;98865.66;5031329;28;20037;-77
2021/10/21 05:16:43;;;;;;;11.63;1.85;;;;;;;13.20;68.28;98896.91;5032525;28;20075;-77
2021/10/21 05:19:09;;;;;;;9.20;1.85;;;;;;;13.43;64.75;98879.72;5032416;28;20120;-76
2021/10/21 05:21:34;;;;;;;10.27;1.35;;;;;;;13.32;66.47;98882.00;5034054;28;20025;-77
2021/10/21 05:23:59;;;;;;;6.43;1.48;;;;;;;13.16;68.25;98874.47;5032260;28;20072;-78
2021/10/21 05:26:24;;;;;;;10.55;1.42;;;;;;;13.08;70.20;98890.59;5033433;28;20053;-78
2021/10/21 05:28:50;;;;;;;6.00;1.30;;;;;;;13.04;69.30;98892.03;5034251;28;20125;-77
2021/10/21 05:31:15;;;;;;;9.77;1.50;;;;;;;13.24;68.19;98887.50;5034366;28;20148;-78
2021/10/21 05:33:40;;;;;;;10.98;1.70;;;;;;;13.16;67.06;98901.00;5033287;28;20072;-77
2021/10/21 05:36:06;;;;;;;8.82;2.10;;;;;;;13.13;67.42;98888.13;5034235;28;20109;-78
2021/10/21 05:38:32;;;;;;;9.35;1.42;;;;;;;13.18;65.63;98877.75;5034184;28;20029;-77
2021/10/21 05:40:57;;;;;;;6.85;1.58;;;;;;;13.27;65.37;98884.44;5032422;28;20033;-77
2021/10/21 05:43:23;;;;;;;6.60;1.48;;;;;;;13.30;66.36;98891.19;5034776;28;20052;-78
2021/10/21 05:45:49;;;;;;;9.88;1.70;;;;;;;13.21;65.59;98872.00;5034362;28;20049;-77
2021/10/21 05:48:16;;;;;;;8.02;1.50;;;;;;;13.15;66.84;98892.22;5028860;28;20034;-78
2021/10/21 05:50:42;;;;;;;6.93;1.77;;;;;;;13.03;69.60;98896.53;5034118;28;20021;-78
2021/10/21 05:53:07;;;;;;;7.63;1.70;;;;;;;13.22;65.76;98894.84;5033105;28;20048;-77
2021/10/21 05:55:33;;;;;;;5.75;1.50;;;;;;;13.18;67.08;98902.44;5033707;28;20053;-77
2021/10/21 05:57:58;;;;;;;7.75;1.85;;;;;;;13.15;69.21;98888.75;5033577;28;20524;-78
2021/10/21 06:00:24;;;;;;;7.40;1.50;;;;;;;13.05;68.81;98925.53;5032723;28;20442;-78
2021/10/21 06:02:49;;;;;;;13.45;1.83;;;;;;;13.09;68.63;98905.53;5033114;28;20056;-77
2021/10/21 06:05:15;;;;;;;5.70;1.35;;;;;;;13.10;65.73;98904.50;5032440;28;20039;-76
2021/10/21 06:07:40;;;;;;;9.20;1.35;;;;;;;13.15;65.97;98915.28;5033058;28;20033;-78
2021/10/21 06:10:06;;;;;;;7.35;1.17;;;;;;;13.14;66.06;98914.47;5033055;28;20107;-78
2021/10/21 06:12:31;;;;;;;7.93;1.00;;;;;;;13.15;65.80;98920.59;5034068;28;20104;-78
2021/10/21 06:14:57;;;;;;;6.65;1.20;;;;;;;13.12;67.06;98926.34;5030093;28;20064;-78
2021/10/21 06:17:24;;;;;;;5.60;1.30;;;;;;;13.06;65.71;98927.16;5034749;28;20498;-79
2021/10/21 06:19:50;;;;;;;6.10;1.52;;;;;;;13.10;64.60;98950.41;5034441;28;20543;-81
2021/10/21 06:22:18;;;;;;;5.13;1.10;;;;;;;13.11;66.88;98978.59;5032622;28;20120;-78
2021/10/21 06:24:45;;;;;;;9.43;1.30;;;;;;;13.26;63.42;98964.28;5031120;28;20220;-77
2021/10/21 06:27:11;;;;;;;6.07;1.25;;;;;;;13.26;63.63;98983.66;5032241;28;20030;-78
2021/10/21 06:29:37;;;;;;;7.75;1.13;;;;;;;13.28;64.04;98973.69;5030905;28;20036;-77
2021/10/21 06:32:04;;;;;;;10.95;1.27;;;;;;;13.21;65.01;99011.88;5032325;28;20114;-77
2021/10/21 06:34:29;;;;;;;7.32;1.33;;;;;;;13.17;66.54;99004.28;5027512;28;20398;-77
2021/10/21 06:36:55;;;;;;;15.25;2.05;;;;;;;13.06;67.51;99042.09;5032900;28;20034;-77
2021/10/21 06:39:20;;;;;;;6.03;0.93;;;;;;;12.95;67.25;99048.00;5032061;28;20068;-77
2021/10/21 06:41:45;;;;;;;6.25;1.00;;;;;;;12.97;67.43;99051.28;5033511;28;20406;-78
2021/10/21 06:44:11;;;;;;;6.00;1.13;;;;;;;12.92;68.27;99046.56;5034018;28;20030;-78
2021/10/21 06:46:36;;;;;;;7.97;1.15;;;;;;;12.93;67.88;99042.06;5033865;28;20072;-79
2021/10/21 06:49:02;;;;;;;5.63;1.00;;;;;;;12.67;69.96;99056.13;5030027;28;20463;-79
2021/10/21 06:51:27;;;;;;;7.00;0.90;;;;;;;12.47;72.91;99099.31;5035786;28;20026;-78
2021/10/21 06:53:53;;;;;;;7.07;1.30;;;;;;;12.50;71.61;99087.50;5034618;28;20053;-78
2021/10/21 06:56:18;;;;;;;6.53;1.38;;;;;;;12.39;72.89;99090.72;5032424;28;20041;-78
2021/10/21 06:58:44;;;;;;;7.45;1.05;;;;;;;12.29;73.65;99085.78;5034608;28;20022;-78
2021/10/21 07:01:09;;;;;;;6.65;1.70;;;;;;;12.35;73.85;99100.91;5034803;28;20124;-77
2021/10/21 07:03:34;;;;;;;5.15;0.98;;;;;;;12.33;72.85;99130.25;5034395;28;20128;-78
2021/10/21 07:06:00;;;;;;;6.88;1.33;;;;;;;12.20;75.06;99122.22;5032732;28;20379;-77
2021/10/21 07:08:28;;;;;;;6.18;1.02;;;;;;;12.26;73.88;99158.56;5033977;28;20041;-79
2021/10/21 07:10:53;;;;;;;3.67;0.90;;;;;;;12.29;73.73;99152.88;5032662;28;20037;-79
2021/10/21 07:13:18;;;;;;;4.22;0.80;;;;;;;12.32;73.58;99160.44;5034077;28;20033;-78
2021/10/21 07:15:44;;;;;;;6.63;0.77;;;;;;;12.30;74.10;99169.59;5032036;28;20076;-78
2021/10/21 07:18:09;;;;;;;3.53;0.80;;;;;;;12.28;74.28;99182.25;5032262;28;20522;-79
2021/10/21 07:20:34;;;;;;;5.80;0.80;;;;;;;12.29;73.65;99219.13;5033670;28;20048;-78
2021/10/21 07:23:00;;;;;;;5.95;1.00;;;;;;;12.31;73.30;99216.28;5033765;28;20033;-78
2021/10/21 07:25:29;;;;;;;4.90;0.85;;;;;;;12.37;73.33;99227.94;5032201;28;20522;-78
2021/10/21 07:27:58;;;;;;;4.07;1.05;;;;;;;12.33;74.77;99251.38;5033073;28;20057;-78
2021/10/21 07:30:27;;;;;;;3.80;0.93;;;;;;;12.39;74.21;99271.78;5030967;28;20113;-77
2021/10/21 07:32:54;;;;;;;5.10;0.80;;;;;;;12.36;74.02;99303.19;5025765;28;20029;-78
2021/10/21 07:35:19;;;;;;;4.72;0.70;;;;;;;12.34;74.28;99316.63;5030985;28;20529;-77
2021/10/21 07:37:45;;;;;;;3.30;0.50;;;;;;;12.29;74.47;99350.84;5031861;28;20041;-78
2021/10/21 07:40:11;;;;;;;4.07;0.98;;;;;;;12.43;73.44;99357.06;5031928;28;20498;-78
2021/10/21 07:42:38;;;;;;;1.60;0.50;;;;;;;12.29;74.55;99374.69;5031518;28;20026;-78
2021/10/21 07:45:04;;;;;;;4.65;0.88;;;;;;;12.24;74.46;99396.47;5032095;28;20061;-78
2021/10/21 07:47:30;;;;;;;2.05;0.40;;;;;;;12.35;74.55;99415.50;5030918;28;20029;-78
2021/10/21 07:49:56;;;;;;;3.20;0.40;;;;;;;12.40;73.66;99408.66;5025555;28;20068;-77
2021/10/21 07:52:23;;;;;;;4.05;0.60;;;;;;;12.28;74.86;99439.34;5029580;28;20049;-78
2021/10/21 07:54:48;;;;;;;0.90;0.40;;;;;;;12.35;74.66;99453.47;5030764;28;20092;-77
2021/10/21 07:57:13;;;;;;;4.13;0.50;;;;;;;12.27;74.81;99469.47;5029068;28;20454;-77
2021/10/21 07:59:39;;;;;;;2.10;0.38;;;;;;;12.26;75.14;99481.91;5030708;28;20045;-77
2021/10/21 08:02:05;;;;;;;2.97;0.45;;;;;;;12.24;74.72;99483.94;5029954;28;20041;-77
2021/10/21 08:04:32;;;;;;;2.88;0.40;;;;;;;12.17;75.89;99498.13;5031025;28;20036;-77
2021/10/21 08:06:58;;;;;;;0.50;0.40;;;;;;;12.20;76.48;99513.66;5031669;28;20057;-78
2021/10/21 08:09:31;;;;;;;2.58;0.50;;;;;;;12.18;76.44;99519.16;5031213;28;20048;-77
2021/10/21 08:12:01;;;;;;;2.75;0.40;;;;;;;12.31;74.23;99539.69;5031287;28;20029;-76
2021/10/21 08:14:27;;;;;;;3.00;0.52;;;;;;;12.22;74.56;99549.56;5029050;28;20092;-78
2021/10/21 08:16:54;;;;;;;1.45;0.43;;;;;;;12.14;74.44;99562.94;5031009;28;20441;-78
2021/10/21 08:19:21;;;;;;;2.08;0.40;;;;;;;12.13;73.81;99574.53;5031360;28;20034;-78
2021/10/21 08:21:47;;;;;;;1.08;0.50;;;;;;;12.08;74.67;99591.00;5030983;28;20095;-77
2021/10/21 08:24:13;;;;;;;1.55;0.40;;;;;;;12.10;74.82;99586.31;5030250;28;20497;-78
2021/10/21 08:26:38;;;;;;;0.95;0.40;;;;;;;12.11;74.58;99593.28;5030984;28;20052;-80
2021/10/21 08:29:04;;;;;;;2.15;0.40;;;;;;;12.06;74.88;99594.81;5033251;28;20037;-81
2021/10/21 08:31:29;;;;;;;2.03;0.40;;;;;;;12.12;75.16;99604.69;5033427;28;20108;-80
2021/10/21 08:33:55;;;;;;;1.58;0.38;;;;;;;12.18;73.82;99603.13;5031628;28;20029;-80
2021/10/21 08:36:22;;;;;;;1.15;0.40;;;;;;;12.16;74.33;99623.72;5032214;28;20041;-81
2021/10/21 08:38:49;;;;;;;1.70;0.38;;;;;;;12.19;74.81;99631.28;5032291;28;20029;-81
2021/10/21 08:41:15;;;;;;;2.08;0.85;;;;;;;12.17;74.24;99643.91;5033196;28;20037;-81
2021/10/21 08:43:42;;;;;;;3.65;0.40;;;;;;;12.16;73.01;99652.88;5032897;28;20390;-80
2021/10/21 08:46:08;;;;;;;0.75;0.30;;;;;;;12.11;73.02;99654.22;5035066;28;20096;-80
2021/10/21 08:48:35;;;;;;;0.75;0.30;;;;;;;12.01;74.43;99674.03;5031428;28;20053;-79
2021/10/21 08:51:02;;;;;;;0.57;0.40;;;;;;;12.00;74.09;99691.78;5035609;28;20040;-79
2021/10/21 08:53:27;;;;;;;0.90;0.50;;;;;;;12.00;73.95;99691.78;5028553;28;20025;-80
2021/10/21 08:55:54;;;;;;;2.55;0.70;;;;;;;12.03;73.83;99707.31;5036886;28;20126;-79
2021/10/21 08:58:20;;;;;;;1.00;0.43;;;;;;;12.20;73.59;99733.63;5035610;28;20124;-80
2021/10/21 09:00:54;;;;;;;2.05;0.50;;;;;;;12.24;73.05;99769.38;5037241;28;20029;-80
2021/10/21 09:04:01;;;;;;;2.65;0.70;;;;;;;12.25;71.86;99748.00;5037249;28;20037;-80
2021/10/21 09:09:18;;;;;;;1.83;0.70;;;;;;;12.26;69.91;99770.84;5038633;28;20550;-80
2021/10/21 09:11:44;;;;;;;0.95;0.43;;;;;;;12.28;70.94;99768.03;5039112;28;20030;-79
2021/10/21 09:14:12;;;;;;;1.55;0.50;;;;;;;12.42;69.09;99769.88;5035471;28;20613;-80
2021/10/21 09:16:58;;;;;;;3.58;0.70;;;;;;;12.44;69.00;99780.28;5036680;28;20034;-79
2021/10/21 09:19:27;;;;;;;1.77;0.60;;;;;;;12.36;67.71;99773.22;5038616;28;20033;-79
2021/10/21 09:21:52;;;;;;;3.13;1.05;;;;;;;12.39;68.04;99795.91;5039267;28;20031;-80
2021/10/21 09:24:39;;;;;;;2.55;0.60;;;;;;;12.40;69.41;99792.25;5039600;28;20429;-79
2021/10/21 09:27:10;;;;;;;1.95;0.60;;;;;;;12.37;66.73;99792.59;5036024;28;20490;-78
2021/10/21 09:29:39;;;;;;;2.55;0.77;;;;;;;12.37;67.11;99804.06;5038910;28;20029;-78
2021/10/21 09:32:12;;;;;;;2.47;0.82;;;;;;;12.43;67.18;99815.75;5037400;28;20033;-78
2021/10/21 09:34:54;;;;;;;1.85;0.70;;;;;;;12.50;67.32;99819.31;5034510;28;20052;-78
2021/10/21 09:37:25;;;;;;;3.53;1.02;;;;;;;12.42;65.40;99833.50;5037595;28;20053;-78
2021/10/21 09:39:59;;;;;;;3.17;0.80;;;;;;;12.48;66.13;99840.72;5040945;28;20037;-78
2021/10/21 09:42:32;;;;;;;2.88;0.70;;;;;;;12.57;67.46;99838.81;5039907;28;20037;-78
2021/10/21 09:45:17;;;;;;;3.53;1.00;;;;;;;12.60;66.71;99842.94;5042036;28;20514;-78
2021/10/21 09:47:49;;;;;;;2.75;0.80;;;;;;;12.62;65.50;99833.78;5033971;28;20029;-78
2021/10/21 09:50:20;;;;;;;;;;;;;;;12.62;66.59;99851.53;5035498;28;20121;-78
2021/10/21 09:53:09;;;;;;;4.85;0.88;;;;;;;12.65;65.87;99859.13;5034523;28;19913;-78
2021/10/21 09:55:39;;;;;;;3.63;1.23;;;;;;;12.61;66.31;99860.47;5034116;28;20091;-78
2021/10/21 09:58:07;;;;;;;3.20;1.50;;;;;;;12.60;66.92;99872.09;5035134;28;20033;-78
2021/10/21 10:00:37;;;;;;;4.13;1.27;;;;;;;12.61;64.94;99879.03;5035053;28;20032;-78
2021/10/21 10:03:19;;;;;;;6.07;1.30;;;;;;;12.60;62.88;99877.41;5033431;28;20088;-78
2021/10/21 10:05:48;;;;;;;4.70;1.50;;;;;;;12.52;65.18;99896.88;5036191;28;20033;-78
2021/10/21 10:08:15;;;;;;;7.22;2.20;;;;;;;12.53;65.01;99895.88;5034468;28;20491;-77
2021/10/21 10:10:43;;;;;;;3.42;0.80;;;;;;;12.52;65.26;99900.34;5034031;28;20037;-78
2021/10/21 10:13:09;;;;;;;3.38;1.55;;;;;;;12.42;63.65;99896.28;5035221;28;20402;-78
2021/10/21 10:15:35;;;;;;;5.20;1.20;;;;;;;12.53;63.41;99915.25;5030777;28;20037;-78
2021/10/21 10:18:07;;;;;;;3.63;1.00;;;;;;;12.47;64.15;99907.22;5034804;28;20116;-78
2021/10/21 10:20:34;;;;;;;3.53;0.90;;;;;;;12.50;64.81;99897.06;5035274;28;20030;-78
2021/10/21 10:23:03;;;;;;;3.13;0.90;;;;;;;12.48;63.93;99912.31;5035150;28;20250;-78
2021/10/21 10:25:28;;;;;;;3.22;0.93;;;;;;;12.52;63.07;99918.09;5032818;28;20029;-78
2021/10/21 10:28:04;;;;;;;4.28;0.77;;;;;;;12.48;65.83;99932.72;5033709;28;20375;-78
2021/10/21 10:30:50;;;;;;;3.22;0.90;;;;;;;12.45;65.93;99928.59;5034751;28;20490;-78
2021/10/21 10:33:44;;;;;;;2.55;0.95;;;;;;;12.45;65.45;99936.53;5030733;28;20042;-78
2021/10/21 10:36:30;;;;;;;7.15;1.10;;;;;;;12.41;65.49;99942.38;5025749;28;20037;-78
2021/10/21 10:39:05;;;;;;;3.90;1.05;;;;;;;12.51;65.71;99933.19;5036270;28;20029;-78
2021/10/21 10:41:47;;;;;;;3.58;0.73;;;;;;;12.70;65.52;99926.56;5036093;28;20044;-78
2021/10/21 10:44:35;;;;;;;2.13;0.70;;;;;;;12.82;63.29;99932.22;5034992;28;20115;-78
2021/10/21 10:47:06;;;;;;;2.40;0.82;;;;;;;12.77;64.91;99939.91;5035458;28;20190;-78
2021/10/21 10:49:38;;;;;;;;;;;;;;;12.79;65.21;99937.91;5032006;28;20112;-78
2021/10/21 10:52:04;;;;;;;;;;;;;;;12.77;65.79;99937.25;5035642;28;19913;-78
2021/10/21 10:54:38;;;;;;;5.30;0.93;;;;;;;12.70;64.25;99938.97;5032325;28;19971;-78
2021/10/21 10:57:04;;;;;;;2.85;0.80;;;;;;;12.87;64.50;99940.50;5032692;28;20041;-78
2021/10/21 10:59:31;;;;;;;6.43;1.45;;;;;;;12.74;65.20;99940.28;5031717;28;20036;-78
2021/10/21 11:01:59;;;;;;;4.97;2.30;;;;;;;12.80;63.85;99952.81;5033128;28;20530;-77
2021/10/21 11:04:55;;;;;;;5.88;2.00;;;;;;;12.79;64.98;99950.34;5031566;28;20037;-78
2021/10/21 11:07:22;;;;;;;6.50;1.42;;;;;;;12.77;64.80;99941.72;5031612;28;20034;-77
2021/10/21 11:09:49;;;;;;;5.20;2.25;;;;;;;12.86;66.06;99940.66;5032099;28;20120;-77
2021/10/21 11:12:24;;;;;;;6.40;1.60;;;;;;;13.11;64.75;99941.25;5031594;28;20038;-77
2021/10/21 11:14:54;;;;;;;5.65;1.52;;;;;;;13.40;64.07;99934.31;5029716;28;20117;-77
2021/10/21 11:17:44;;;;;;;6.68;1.33;;;;;;;13.47;64.04;99945.84;5032367;28;20044;-78
2021/10/21 11:20:27;;;;;;;7.38;1.65;;;;;;;13.53;64.27;99934.47;5030323;28;20060;-78
2021/10/21 11:22:54;;;;;;;4.32;1.10;;;;;;;13.38;62.85;99934.47;5030735;28;20102;-77
2021/10/21 11:25:24;;;;;;;8.48;1.13;;;;;;;13.47;63.39;99938.69;5031807;28;20558;-78
2021/10/21 11:27:52;;;;;;;4.32;1.30;;;;;;;13.54;63.41;99938.78;5031859;28;20038;-78
2021/10/21 11:30:29;;;;;;;5.03;1.20;;;;;;;13.63;61.07;99929.66;5031457;28;20029;-78
2021/10/21 11:32:57;;;;;;;6.03;1.20;;;;;;;13.67;59.88;99916.84;5028068;28;20120;-77
2021/10/21 11:35:25;;;;;;;7.90;1.10;;;;;;;13.58;61.74;99919.59;5031421;28;20021;-77